Time;durP1;ratioP1;P1;durP2;ratioP2;P2;SDS_P1;SDS_P2;PMS_P1;PMS_P2;Temp;Humidity;BMP_temperature;BMP_pressure;BME280_temperature;BME280_humidity;BME280_pressure;Samples;Min_cycle;Max_cycle;Signal;HPM_P1;HPM_P2
2023/03/07 00:01:39;;;;;;;3.00;2.42;;;19.80;57.70;;;;;;4753821;29;91998;-89
2023/03/07 00:04:04;;;;;;;3.15;2.42;;;19.80;57.80;;;;;;4769701;29;90551;-89
2023/03/07 00:06:30;;;;;;;4.85;2.80;;;19.70;57.70;;;;;;4785899;29;87040;-88
2023/03/07 00:08:58;;;;;;;3.17;2.85;;;19.70;58.30;;;;;;4777438;29;89838;-90
2023/03/07 00:11:24;;;;;;;3.80;2.50;;;19.70;57.60;;;;;;4786248;29;89278;-89
2023/03/07 00:13:50;;;;;;;4.03;2.97;;;19.70;57.70;;;;;;4783944;29;87459;-89
2023/03/07 00:16:19;;;;;;;2.58;2.38;;;19.70;57.70;;;;;;4784375;29;88040;-89
2023/03/07 00:18:44;;;;;;;2.85;2.33;;;19.60;57.70;;;;;;4784131;29;87144;-89
2023/03/07 00:21:12;;;;;;;2.70;2.38;;;19.60;57.80;;;;;;4768801;29;91637;-88
2023/03/07 00:23:40;;;;;;;3.75;2.65;;;19.60;57.80;;;;;;4783892;29;91824;-88
2023/03/07 00:26:20;;;;;;;2.40;2.20;;;19.60;57.90;;;;;;4785620;29;86972;-89
2023/03/07 00:28:47;;;;;;;3.17;2.40;;;19.60;57.80;;;;;;4785399;29;87452;-89
2023/03/07 00:31:13;;;;;;;4.30;3.22;;;19.60;57.90;;;;;;4786471;29;88648;-89
2023/03/07 00:33:39;;;;;;;3.97;3.00;;;19.50;57.80;;;;;;4786098;29;90096;-89
2023/03/07 00:36:14;;;;;;;3.90;2.65;;;19.50;57.80;;;;;;4786445;29;87672;-88
2023/03/07 00:38:41;;;;;;;5.32;2.83;;;19.50;57.80;;;;;;4767964;29;88966;-88
2023/03/07 00:41:14;;;;;;;3.42;2.75;;;19.50;57.80;;;;;;4767021;29;91870;-88
2023/03/07 00:43:41;;;;;;;2.67;2.30;;;19.50;57.90;;;;;;4767772;29;89977;-88
2023/03/07 00:46:07;;;;;;;3.42;2.83;;;19.50;57.90;;;;;;4769474;29;87553;-88
2023/03/07 00:48:35;;;;;;;3.40;2.42;;;19.50;57.90;;;;;;4770438;29;87524;-88
2023/03/07 00:51:01;;;;;;;3.42;3.13;;;19.50;58.00;;;;;;4783773;29;91475;-87
2023/03/07 00:53:26;;;;;;;2.70;2.38;;;19.40;58.00;;;;;;4765228;29;88653;-88
2023/03/07 00:56:06;;;;;;;2.65;2.35;;;19.50;57.90;;;;;;4768718;29;87279;-88
2023/03/07 00:58:33;;;;;;;;;;;19.40;58.00;;;;;;4776218;29;91450;-88
2023/03/07 01:00:59;;;;;;;3.97;2.35;;;19.40;57.90;;;;;;4784131;29;88758;-89
2023/03/07 01:03:25;;;;;;;2.90;2.38;;;19.40;58.10;;;;;;4768421;29;90124;-89
2023/03/07 01:05:52;;;;;;;4.78;2.70;;;19.40;58.10;;;;;;4771460;29;87911;-88
2023/03/07 01:08:18;;;;;;;2.90;2.60;;;19.30;58.00;;;;;;4767697;29;89918;-89
2023/03/07 01:10:44;;;;;;;2.42;2.20;;;19.30;58.10;;;;;;4768028;29;90513;-89
2023/03/07 01:13:11;;;;;;;3.42;2.90;;;19.40;58.00;;;;;;4770358;29;88291;-88
2023/03/07 01:15:37;;;;;;;5.07;3.15;;;19.30;58.00;;;;;;4769967;29;86948;-88
2023/03/07 01:18:04;;;;;;;3.35;2.58;;;19.30;58.00;;;;;;4769941;29;87235;-88
2023/03/07 01:20:35;;;;;;;3.30;2.70;;;19.30;58.00;;;;;;4768380;29;91236;-88
2023/03/07 01:23:01;;;;;;;3.53;2.60;;;19.30;57.90;;;;;;4783445;29;91830;-88
2023/03/07 01:25:27;;;;;;;4.53;2.88;;;19.30;57.90;;;;;;4769653;29;87473;-88
2023/03/07 01:31:15;;;;;;;3.60;2.65;;;19.20;57.90;;;;;;4769265;29;92745;-89
2023/03/07 01:33:41;;;;;;;3.78;2.45;;;19.30;57.90;;;;;;4769026;29;88337;-88
2023/03/07 01:36:18;;;;;;;3.10;2.38;;;19.20;57.80;;;;;;4770254;29;87556;-89
2023/03/07 01:38:47;;;;;;;2.75;2.30;;;19.20;57.70;;;;;;4768209;29;90514;-88
2023/03/07 02:00:24;;;;;;;3.90;2.20;;;19.10;57.80;;;;;;4704917;29;87773;-88
2023/03/07 02:02:54;;;;;;;;;;;19.10;58.00;;;;;;4708693;29;88472;-88
2023/03/07 02:05:24;;;;;;;3.53;2.25;;;19.10;57.90;;;;;;4724340;29;88098;-88
2023/03/07 02:07:51;;;;;;;2.60;2.22;;;19.10;57.90;;;;;;4712755;29;87961;-88
2023/03/07 02:17:05;;;;;;;3.13;2.40;;;19.00;58.00;;;;;;4768634;29;87246;-88
2023/03/07 02:19:40;;;;;;;3.97;2.50;;;19.00;57.90;;;;;;4769268;29;88119;-88
2023/03/07 02:22:16;;;;;;;3.72;2.47;;;19.00;58.50;;;;;;4770115;29;87527;-88
2023/03/07 02:24:44;;;;;;;3.08;2.75;;;19.00;57.90;;;;;;4759947;29;87277;-89
2023/03/07 02:27:16;;;;;;;2.50;2.30;;;19.00;57.90;;;;;;4782532;29;89177;-88
2023/03/07 02:29:49;;;;;;;2.63;2.42;;;19.00;57.90;;;;;;4768024;29;89052;-89
2023/03/07 02:32:17;;;;;;;2.70;2.28;;;19.00;57.90;;;;;;4782087;29;92357;-89
2023/03/07 02:34:43;;;;;;;3.28;2.60;;;19.00;58.00;;;;;;4769245;29;87346;-89
2023/03/07 02:37:19;;;;;;;4.15;2.30;;;18.90;58.00;;;;;;4769252;29;87051;-89
2023/03/07 02:39:46;;;;;;;3.72;2.33;;;19.00;57.90;;;;;;4782148;29;90243;-89
2023/03/07 02:42:24;;;;;;;2.97;2.33;;;18.90;57.90;;;;;;4781904;29;90956;-88
2023/03/07 02:44:59;;;;;;;2.78;2.08;;;18.90;57.80;;;;;;4782568;29;87006;-89
2023/03/07 02:47:26;;;;;;;3.15;2.33;;;18.90;57.70;;;;;;4764919;29;88084;-89
2023/03/07 02:49:52;;;;;;;3.38;2.53;;;18.90;57.80;;;;;;4767356;29;91680;-88
2023/03/07 02:52:27;;;;;;;2.45;2.25;;;18.90;57.80;;;;;;4769604;29;87536;-88
2023/03/07 02:54:53;;;;;;;2.85;2.33;;;18.80;57.60;;;;;;4771901;29;88493;-88
2023/03/07 02:57:19;;;;;;;2.40;2.00;;;18.90;57.80;;;;;;4769828;29;88834;-88
2023/03/07 02:59:45;;;;;;;2.67;2.38;;;18.90;57.70;;;;;;4771483;29;88538;-88
2023/03/07 03:02:10;;;;;;;2.67;2.20;;;18.90;57.70;;;;;;4770699;29;95912;-88
2023/03/07 03:04:36;;;;;;;2.22;2.03;;;18.90;57.80;;;;;;4771844;29;87434;-88
2023/03/07 03:07:02;;;;;;;3.30;2.22;;;18.80;57.90;;;;;;4770762;29;90363;-89
2023/03/07 03:09:28;;;;;;;3.33;2.58;;;18.80;57.80;;;;;;4770275;29;89932;-88
2023/03/07 03:11:53;;;;;;;4.05;2.35;;;18.80;57.80;;;;;;4785473;29;91020;-88
2023/03/07 03:14:19;;;;;;;3.25;2.60;;;18.80;57.70;;;;;;4769648;29;87305;-89
2023/03/07 03:16:45;;;;;;;3.05;2.33;;;18.80;57.70;;;;;;4771806;29;87588;-88
2023/03/07 03:19:10;;;;;;;4.15;2.38;;;18.80;57.80;;;;;;4770547;29;92309;-89
2023/03/07 03:21:37;;;;;;;2.55;2.13;;;18.80;57.80;;;;;;4770404;29;91437;-88
2023/03/07 03:24:09;;;;;;;3.15;2.33;;;18.80;57.70;;;;;;4769928;29;87509;-88
2023/03/07 03:26:35;;;;;;;3.33;2.45;;;18.80;57.80;;;;;;4767231;29;91192;-89
2023/03/07 03:29:03;;;;;;;3.03;2.20;;;18.80;57.80;;;;;;4769834;29;90959;-89
2023/03/07 03:31:29;;;;;;;2.63;2.08;;;18.70;57.60;;;;;;4769569;29;91118;-89
2023/03/07 03:34:04;;;;;;;3.33;2.13;;;18.70;58.20;;;;;;4772485;29;87336;-89
2023/03/07 03:36:30;;;;;;;2.80;2.15;;;18.70;57.70;;;;;;4770023;29;90811;-88
2023/03/07 03:38:57;;;;;;;3.13;2.47;;;18.70;57.70;;;;;;4766566;29;90542;-89
2023/03/07 03:41:23;;;;;;;3.03;2.22;;;18.70;57.70;;;;;;4769535;29;90631;-89
2023/03/07 03:43:49;;;;;;;2.30;2.10;;;18.70;57.90;;;;;;4760373;29;88128;-88
2023/03/07 03:46:16;;;;;;;2.85;2.30;;;18.70;58.40;;;;;;4770533;29;89212;-88
2023/03/07 03:48:42;;;;;;;2.47;2.00;;;18.70;57.60;;;;;;4769773;29;91506;-88
2023/03/07 03:51:11;;;;;;;3.17;2.30;;;18.70;57.70;;;;;;4759735;29;91303;-88
2023/03/07 03:53:38;;;;;;;2.15;1.95;;;18.70;57.80;;;;;;4760614;29;87296;-89
2023/03/07 03:56:06;;;;;;;3.25;2.55;;;18.70;57.60;;;;;;4765557;29;87614;-88
2023/03/07 03:58:32;;;;;;;2.38;2.17;;;18.70;57.70;;;;;;4780130;29;87441;-88
2023/03/07 04:01:06;;;;;;;2.53;2.30;;;18.70;57.60;;;;;;4771467;29;88210;-89
2023/03/07 04:20:21;;;;;;;3.05;2.22;;;18.60;57.50;;;;;;4770006;29;87742;-88
2023/03/07 04:22:47;;;;;;;3.15;2.20;;;18.60;58.10;;;;;;4770921;29;87677;-88
2023/03/07 04:25:12;;;;;;;3.05;2.35;;;18.60;57.50;;;;;;4771798;29;88499;-88
2023/03/07 04:27:38;;;;;;;2.70;1.98;;;18.60;57.70;;;;;;4767902;29;87881;-88
2023/03/07 04:30:04;;;;;;;3.05;2.30;;;18.60;57.50;;;;;;4767747;29;87425;-89
2023/03/07 04:32:30;;;;;;;2.00;1.80;;;18.60;57.50;;;;;;4767773;29;88791;-88
2023/03/07 04:34:55;;;;;;;2.05;1.85;;;18.60;57.50;;;;;;4752376;29;91300;-89
2023/03/07 04:37:21;;;;;;;2.90;2.08;;;18.50;57.50;;;;;;4759125;29;88001;-89
2023/03/07 04:49:57;;;;;;;2.78;2.30;;;18.50;57.50;;;;;;4768306;29;87374;-88
2023/03/07 04:52:23;;;;;;;2.00;1.80;;;18.50;57.60;;;;;;4767215;29;91065;-88
2023/03/07 04:54:48;;;;;;;2.67;2.10;;;18.50;57.50;;;;;;4752766;29;92185;-88
2023/03/07 04:57:14;;;;;;;2.83;2.35;;;18.50;57.50;;;;;;4767589;29;90659;-89
2023/03/07 04:59:39;;;;;;;2.13;1.80;;;18.50;57.50;;;;;;4740959;29;87015;-88
2023/03/07 05:02:06;;;;;;;2.35;2.10;;;18.50;57.50;;;;;;4756930;29;87557;-89
2023/03/07 05:04:32;;;;;;;4.10;2.30;;;18.50;57.60;;;;;;4769430;29;89575;-88
2023/03/07 05:06:58;;;;;;;2.33;2.00;;;18.50;57.50;;;;;;4771057;29;88688;-88
2023/03/07 05:09:24;;;;;;;2.67;2.25;;;18.50;57.70;;;;;;4765616;29;87347;-89
2023/03/07 05:11:49;;;;;;;1.67;1.55;;;18.50;57.70;;;;;;4762869;29;87344;-89
2023/03/07 05:14:15;;;;;;;2.25;1.90;;;18.50;57.60;;;;;;4765673;29;92450;-88
2023/03/07 05:16:41;;;;;;;1.90;1.75;;;18.50;57.60;;;;;;4752848;29;88321;-88
2023/03/07 05:19:08;;;;;;;2.50;2.30;;;18.50;57.50;;;;;;4770848;29;87592;-88
2023/03/07 05:21:34;;;;;;;2.50;1.98;;;18.50;57.60;;;;;;4770045;29;86878;-89
2023/03/07 05:23:59;;;;;;;2.58;2.20;;;18.40;57.60;;;;;;4765034;29;91411;-88
2023/03/07 05:26:25;;;;;;;2.25;1.92;;;18.50;57.70;;;;;;4768215;29;90931;-89
2023/03/07 05:28:51;;;;;;;2.40;2.20;;;18.50;57.60;;;;;;4769217;29;88433;-88
2023/03/07 05:31:16;;;;;;;2.65;2.22;;;18.40;57.50;;;;;;4775694;29;89280;-88
2023/03/07 05:33:42;;;;;;;2.10;1.90;;;18.50;57.70;;;;;;4769943;29;89052;-89
2023/03/07 05:36:08;;;;;;;2.58;2.22;;;18.40;57.70;;;;;;4768434;29;90085;-88
2023/03/07 05:41:58;;;;;;;2.42;1.92;;;18.40;57.50;;;;;;4769593;29;86831;-89
2023/03/07 05:44:23;;;;;;;2.53;2.20;;;18.40;57.60;;;;;;4765151;29;88973;-89
2023/03/07 05:46:49;;;;;;;2.42;2.05;;;18.40;57.40;;;;;;4768134;29;90694;-88
2023/03/07 05:49:14;;;;;;;2.97;2.20;;;18.40;57.40;;;;;;4769049;29;86890;-88
2023/03/07 05:51:40;;;;;;;2.22;2.03;;;18.40;57.40;;;;;;4773187;29;87243;-87
2023/03/07 05:54:16;;;;;;;2.17;1.85;;;18.40;57.40;;;;;;4768944;29;89228;-88
2023/03/07 05:56:43;;;;;;;2.70;2.08;;;18.40;57.40;;;;;;4768902;29;89487;-86
2023/03/07 05:59:11;;;;;;;3.88;1.85;;;18.40;57.40;;;;;;4769655;29;86950;-88
2023/03/07 06:01:38;;;;;;;2.17;1.98;;;18.40;57.10;;;;;;4760145;29;90116;-88
2023/03/07 06:04:03;;;;;;;2.05;1.85;;;18.40;57.30;;;;;;4768100;29;90988;-88
2023/03/07 06:06:29;;;;;;;1.67;1.50;;;18.40;57.40;;;;;;4769013;29;88520;-88
2023/03/07 06:08:55;;;;;;;2.33;1.95;;;18.40;57.30;;;;;;4767275;29;86931;-88
2023/03/07 06:11:20;;;;;;;2.22;2.00;;;18.50;57.30;;;;;;4768944;29;87674;-88
2023/03/07 06:13:46;;;;;;;1.95;1.77;;;18.50;57.30;;;;;;4768548;29;88863;-88
2023/03/07 06:16:12;;;;;;;1.88;1.73;;;18.50;57.20;;;;;;4769555;29;88448;-89
2023/03/07 06:18:37;;;;;;;1.90;1.70;;;18.50;57.30;;;;;;4767662;29;88202;-87
2023/03/07 06:21:05;;;;;;;1.98;1.85;;;18.50;57.10;;;;;;4767156;29;90782;-88
2023/03/07 06:23:32;;;;;;;1.77;1.67;;;18.50;57.10;;;;;;4759533;29;90042;-89
2023/03/07 06:25:58;;;;;;;2.03;1.85;;;18.50;57.10;;;;;;4761835;29;88325;-89
2023/03/07 06:28:24;;;;;;;2.45;2.00;;;18.40;56.90;;;;;;4767574;29;86924;-89
2023/03/07 06:30:50;;;;;;;4.63;2.03;;;18.50;57.10;;;;;;4778562;29;88279;-91
2023/03/07 06:33:16;;;;;;;3.10;2.20;;;18.50;56.70;;;;;;4774660;29;91703;-93
2023/03/07 06:36:02;;;;;;;5.93;2.53;;;18.70;56.80;;;;;;4781340;29;91111;-93
2023/03/07 06:38:28;;;;;;;6.07;3.08;;;18.70;56.50;;;;;;4789070;29;87202;-90
2023/03/07 06:40:55;;;;;;;12.63;4.57;;;18.80;56.20;;;;;;4773934;29;89544;-93
2023/03/07 06:43:21;;;;;;;12.48;4.00;;;18.90;55.50;;;;;;4774049;29;92225;-92
2023/03/07 06:45:46;;;;;;;9.85;3.90;;;19.00;55.40;;;;;;4790584;29;92048;-93
2023/03/07 06:48:12;;;;;;;12.20;4.88;;;19.10;55.10;;;;;;4782350;29;87082;-94
2023/03/07 06:50:37;;;;;;;9.25;3.55;;;19.30;54.40;;;;;;4771751;29;90548;-95
2023/03/07 06:56:28;;;;;;;10.07;4.35;;;19.60;54.20;;;;;;4782128;29;87539;-92
2023/03/07 06:58:54;;;;;;;9.15;3.65;;;19.70;53.90;;;;;;4772099;29;86942;-95
2023/03/07 07:01:24;;;;;;;9.43;3.95;;;19.80;53.90;;;;;;4771755;29;89603;-95
2023/03/07 07:03:50;;;;;;;10.02;3.67;;;19.90;53.80;;;;;;4774034;29;95828;-92
2023/03/07 07:06:15;;;;;;;12.70;4.15;;;19.90;53.90;;;;;;4775357;29;88171;-91
2023/03/07 07:08:41;;;;;;;13.23;4.75;;;19.80;53.90;;;;;;4775135;29;88094;-92
2023/03/07 07:11:07;;;;;;;10.32;3.60;;;19.80;54.00;;;;;;4772227;29;89276;-91
2023/03/07 07:13:33;;;;;;;10.43;3.83;;;19.70;53.80;;;;;;4773330;29;90587;-89
2023/03/07 07:26:03;;;;;;;8.93;3.63;;;19.60;54.30;;;;;;4762263;29;87661;-92
2023/03/07 07:28:29;;;;;;;7.63;3.85;;;19.60;54.80;;;;;;4774668;29;90234;-94
2023/03/07 07:30:55;;;;;;;7.82;3.80;;;19.50;54.90;;;;;;4790401;29;87485;-92
2023/03/07 07:33:20;;;;;;;12.07;3.78;;;19.50;55.00;;;;;;4771003;29;89365;-94
2023/03/07 07:35:46;;;;;;;5.85;3.13;;;19.50;55.20;;;;;;4767717;29;90304;-93
2023/03/07 07:38:12;;;;;;;10.82;3.80;;;19.40;55.30;;;;;;4775329;29;89201;-90
2023/03/07 07:40:38;;;;;;;8.43;3.88;;;19.40;55.50;;;;;;4771619;29;87450;-95
2023/03/07 07:46:28;;;;;;;10.23;3.20;;;19.50;55.60;;;;;;4770862;29;91727;-94
2023/03/07 07:48:54;;;;;;;9.07;3.33;;;19.60;55.50;;;;;;4773161;29;87493;-94
2023/03/07 07:51:20;;;;;;;10.88;3.80;;;19.70;55.50;;;;;;4771571;29;87813;-93
2023/03/07 07:53:46;;;;;;;6.90;3.40;;;19.80;55.10;;;;;;4771474;29;86853;-93
2023/03/07 07:56:12;;;;;;;9.82;3.38;;;19.90;55.10;;;;;;4761650;29;88234;-93
2023/03/07 07:58:38;;;;;;;8.85;3.55;;;19.90;54.90;;;;;;4768327;29;91097;-94
2023/03/07 08:01:36;;;;;;;7.85;3.20;;;19.90;55.00;;;;;;4769504;29;88352;-94
2023/03/07 08:04:02;;;;;;;9.27;3.80;;;19.90;54.90;;;;;;4707384;29;88289;-94
2023/03/07 08:06:28;;;;;;;8.18;3.55;;;19.90;54.80;;;;;;4706131;29;90522;-94
2023/03/07 08:08:54;;;;;;;10.93;3.88;;;19.90;54.90;;;;;;4690763;29;90196;-92
2023/03/07 08:11:21;;;;;;;8.82;3.85;;;19.90;54.90;;;;;;4706331;29;87392;-95
2023/03/07 08:13:47;;;;;;;8.20;2.97;;;19.80;55.00;;;;;;4692894;29;88835;-94
2023/03/07 08:16:18;;;;;;;9.75;3.15;;;19.80;55.20;;;;;;4707931;29;90251;-95
2023/03/07 08:18:52;;;;;;;9.40;3.65;;;19.80;55.20;;;;;;4708287;29;89283;-94
2023/03/07 08:21:18;;;;;;;8.35;3.05;;;19.70;55.30;;;;;;4711603;29;87454;-94
2023/03/07 08:23:44;;;;;;;8.98;3.30;;;19.70;55.40;;;;;;4676747;29;89889;-95
2023/03/07 08:26:12;;;;;;;6.57;2.92;;;19.70;55.40;;;;;;4700565;29;91027;-94
2023/03/07 08:28:47;;;;;;;10.30;4.05;;;19.60;55.60;;;;;;4680892;30;90062;-95
2023/03/07 08:31:15;;;;;;;7.53;3.25;;;19.70;55.50;;;;;;4682277;30;87416;-95
2023/03/07 08:33:41;;;;;;;8.85;3.10;;;19.70;55.60;;;;;;4666993;30;89416;-95
2023/03/07 08:36:08;;;;;;;8.30;3.33;;;19.80;55.50;;;;;;4653466;30;90354;-92
2023/03/07 08:38:33;;;;;;;5.38;2.95;;;19.80;55.50;;;;;;4678544;29;88480;-95
2023/03/07 08:41:00;;;;;;;6.43;3.05;;;19.80;55.60;;;;;;4752078;29;87757;-93
2023/03/07 08:43:31;;;;;;;6.90;2.97;;;19.70;55.70;;;;;;4742941;29;86601;-94
2023/03/07 08:49:24;;;;;;;6.03;3.03;;;19.80;55.60;;;;;;4752433;29;87095;-95
2023/03/07 08:51:49;;;;;;;6.45;2.78;;;19.90;55.50;;;;;;4752068;29;88528;-95
2023/03/07 08:54:15;;;;;;;6.45;3.20;;;19.80;56.30;;;;;;4737064;29;90167;-95
2023/03/07 08:56:41;;;;;;;7.13;3.28;;;19.90;55.60;;;;;;4738200;29;91124;-95
2023/03/07 08:59:07;;;;;;;5.80;3.08;;;19.80;55.60;;;;;;4757010;29;88074;-95
2023/03/07 09:01:35;;;;;;;5.78;2.70;;;19.80;55.80;;;;;;4772554;29;86850;-95
2023/03/07 09:04:01;;;;;;;7.40;3.05;;;19.80;55.80;;;;;;4785979;29;89726;-95
2023/03/07 09:06:27;;;;;;;5.03;2.40;;;19.80;55.90;;;;;;4778057;29;90991;-94
2023/03/07 09:08:53;;;;;;;5.57;2.92;;;19.70;56.20;;;;;;4770449;29;90709;-95
2023/03/07 09:11:20;;;;;;;6.65;2.90;;;19.70;56.20;;;;;;4773797;29;86923;-96
2023/03/07 09:14:03;;;;;;;5.38;2.70;;;19.60;56.10;;;;;;4770313;29;88857;-95
2023/03/07 09:16:29;;;;;;;6.32;3.00;;;19.70;56.20;;;;;;4771691;29;90243;-96
2023/03/07 09:18:55;;;;;;;5.07;2.35;;;19.70;56.20;;;;;;4771462;29;91277;-95
2023/03/07 09:21:20;;;;;;;6.57;2.65;;;19.70;56.00;;;;;;4772867;29;87026;-95
2023/03/07 09:30:32;;;;;;;4.88;2.55;;;19.80;56.10;;;;;;4770746;29;86850;-92
2023/03/07 09:32:57;;;;;;;6.07;2.45;;;19.90;55.80;;;;;;4772259;29;86896;-94
2023/03/07 09:35:24;;;;;;;5.25;2.83;;;19.80;55.80;;;;;;4772626;29;87574;-95
2023/03/07 09:37:50;;;;;;;4.57;2.60;;;19.90;56.00;;;;;;4771871;29;87610;-93
2023/03/07 09:40:34;;;;;;;8.25;3.03;;;19.80;56.00;;;;;;4763275;29;90549;-93
2023/03/07 09:43:14;;;;;;;7.00;3.00;;;19.80;56.00;;;;;;4763024;29;88517;-95
2023/03/07 09:46:04;;;;;;;3.30;2.50;;;19.80;56.10;;;;;;4752490;29;90257;-94
2023/03/07 09:49:00;;;;;;;6.20;2.85;;;19.70;56.20;;;;;;4746633;29;91376;-95
2023/03/07 09:51:41;;;;;;;6.85;2.65;;;19.70;56.30;;;;;;4758504;29;90032;-95
2023/03/07 09:54:27;;;;;;;4.85;2.42;;;19.60;56.40;;;;;;4785075;29;87017;-93
2023/03/07 09:56:59;;;;;;;5.80;2.65;;;19.70;56.40;;;;;;4763276;29;88338;-94
2023/03/07 09:59:34;;;;;;;4.65;2.70;;;19.70;56.20;;;;;;4771360;29;90777;-94
2023/03/07 10:02:20;;;;;;;5.03;2.85;;;19.80;56.10;;;;;;4781748;29;90561;-93
2023/03/07 10:05:00;;;;;;;5.32;2.97;;;19.80;56.00;;;;;;4770873;29;86905;-93
2023/03/07 10:07:26;;;;;;;5.43;2.03;;;19.80;56.10;;;;;;4761711;29;89471;-93
2023/03/07 10:10:09;;;;;;;4.50;2.60;;;19.80;56.10;;;;;;4766188;29;92660;-94
2023/03/07 10:12:50;;;;;;;7.57;2.38;;;19.90;56.20;;;;;;4768691;29;92098;-90
2023/03/07 10:15:56;;;;;;;8.23;3.42;;;19.90;55.50;;;;;;4770160;29;87628;-88
2023/03/07 10:18:44;;;;;;;5.45;2.83;;;19.80;53.20;;;;;;4725481;29;90422;-92
2023/03/07 10:21:37;;;;;;;5.15;2.70;;;19.80;53.60;;;;;;4734977;29;92197;-91
2023/03/07 10:24:30;;;;;;;4.65;2.83;;;19.90;54.10;;;;;;4743261;29;90581;-92
2023/03/07 10:27:24;;;;;;;4.80;3.28;;;19.90;54.30;;;;;;4752051;29;87311;-90
2023/03/07 10:29:58;;;;;;;7.53;3.00;;;20.00;54.10;;;;;;4754287;29;86532;-92
2023/03/07 10:32:39;;;;;;;8.43;2.13;;;20.10;54.10;;;;;;4754937;29;89958;-92
2023/03/07 10:35:12;;;;;;;4.32;2.33;;;20.20;54.10;;;;;;4729617;29;88233;-91
2023/03/07 10:37:49;;;;;;;4.18;2.47;;;20.30;54.20;;;;;;4731066;29;90166;-92
2023/03/07 10:40:41;;;;;;;5.88;2.40;;;20.30;54.00;;;;;;4734905;29;90754;-91
2023/03/07 10:43:26;;;;;;;4.63;2.67;;;20.40;53.80;;;;;;4707174;29;87719;-92
2023/03/07 10:45:58;;;;;;;5.95;2.33;;;20.50;53.80;;;;;;4714872;29;89601;-92
2023/03/07 10:48:25;;;;;;;6.50;3.08;;;20.50;52.70;;;;;;4705982;29;87426;-90
2023/03/07 10:51:05;;;;;;;5.53;2.35;;;20.40;53.40;;;;;;4704123;29;87453;-88
2023/03/07 10:53:42;;;;;;;6.43;2.92;;;20.40;53.70;;;;;;4714173;29;88785;-91
2023/03/07 10:56:12;;;;;;;6.30;2.58;;;20.40;54.00;;;;;;4750726;29;94306;-91
2023/03/07 10:59:23;;;;;;;7.10;3.25;;;20.30;54.00;;;;;;4750563;29;87414;-91
2023/03/07 11:02:04;;;;;;;6.00;2.60;;;20.40;54.30;;;;;;4695936;29;87568;-90
2023/03/07 11:04:44;;;;;;;6.15;2.60;;;20.30;54.50;;;;;;4688233;30;91489;-90
2023/03/07 11:07:28;;;;;;;7.00;3.03;;;20.20;54.70;;;;;;4696323;29;88347;-90
2023/03/07 11:09:55;;;;;;;6.45;3.28;;;20.20;55.10;;;;;;4696541;30;87108;-91
2023/03/07 11:12:24;;;;;;;7.65;2.53;;;20.20;55.50;;;;;;4680729;30;90433;-91
2023/03/07 11:15:04;;;;;;;6.60;3.45;;;20.20;55.40;;;;;;4681846;30;91223;-92
2023/03/07 11:20:52;;;;;;;4.72;2.72;;;20.20;55.80;;;;;;4697844;30;87092;-94
2023/03/07 11:23:25;;;;;;;5.13;2.70;;;20.20;55.30;;;;;;4673025;30;89319;-91
2023/03/07 11:25:55;;;;;;;6.82;2.88;;;20.20;55.30;;;;;;4665419;30;91772;-93
2023/03/07 11:28:34;;;;;;;5.78;3.17;;;20.20;55.80;;;;;;4671491;30;90233;-93
2023/03/07 11:31:09;;;;;;;;;;;20.20;56.00;;;;;;4675690;30;88627;-90
2023/03/07 11:33:44;;;;;;;7.63;3.00;;;20.30;56.10;;;;;;4672834;30;87063;-86
2023/03/07 11:36:16;;;;;;;6.10;3.03;;;20.40;56.10;;;;;;4716495;29;87578;-92
2023/03/07 11:38:56;;;;;;;10.57;4.45;;;20.40;56.10;;;;;;4754074;29;90027;-92
2023/03/07 11:41:29;;;;;;;11.20;3.75;;;20.40;55.60;;;;;;4751516;29;87551;-92
2023/03/07 11:44:00;;;;;;;10.15;4.00;;;20.40;55.50;;;;;;4751027;29;88729;-91
2023/03/07 11:46:29;;;;;;;10.43;3.75;;;20.40;55.90;;;;;;4739112;29;87479;-89
2023/03/07 11:49:11;;;;;;;8.50;3.63;;;20.30;56.50;;;;;;4743282;29;86413;-89
2023/03/07 11:52:06;;;;;;;9.63;4.50;;;20.30;57.60;;;;;;4742633;29;87552;-89
2023/03/07 11:54:48;;;;;;;10.45;4.50;;;20.20;58.30;;;;;;4753888;29;87467;-89
2023/03/07 11:57:52;;;;;;;10.23;4.82;;;20.10;58.40;;;;;;4770546;29;89739;-91
2023/03/07 12:08:11;;;;;;;8.93;4.13;;;20.00;59.50;;;;;;4724379;29;87554;-91
2023/03/07 12:10:53;;;;;;;7.90;4.00;;;20.10;59.00;;;;;;4726261;29;90876;-94
2023/03/07 12:14:02;;;;;;;9.07;3.47;;;20.10;57.50;;;;;;4728609;29;90808;-95
2023/03/07 12:16:59;;;;;;;7.05;3.15;;;20.20;55.90;;;;;;4732928;29;87095;-94
2023/03/07 12:19:31;;;;;;;8.73;3.40;;;20.30;55.90;;;;;;4733816;29;91230;-94
2023/03/07 12:22:33;;;;;;;8.70;4.13;;;20.40;56.60;;;;;;4732788;29;90744;-92
2023/03/07 12:25:20;;;;;;;5.55;3.03;;;20.30;56.60;;;;;;4732137;29;90110;-92
2023/03/07 12:28:04;;;;;;;7.90;3.38;;;20.40;56.80;;;;;;4731826;29;88357;-92
2023/03/07 12:30:52;;;;;;;8.38;3.30;;;20.40;56.90;;;;;;4732726;29;87020;-93
2023/03/07 12:37:01;;;;;;;9.70;3.22;;;20.30;57.10;;;;;;4727727;29;87532;-93
2023/03/07 12:39:36;;;;;;;8.02;2.78;;;20.30;57.30;;;;;;4735090;29;87400;-93
2023/03/07 12:42:35;;;;;;;7.72;3.17;;;20.30;57.90;;;;;;4735620;29;89452;-94
2023/03/07 12:45:21;;;;;;;7.32;3.40;;;20.30;57.30;;;;;;4750887;29;88745;-94
2023/03/07 12:48:28;;;;;;;9.05;3.45;;;20.30;57.30;;;;;;4735956;29;90819;-94
2023/03/07 12:51:22;;;;;;;6.43;2.92;;;20.30;57.30;;;;;;4700059;29;87202;-93
2023/03/07 12:54:13;;;;;;;8.57;3.95;;;20.30;57.20;;;;;;4725167;29;90647;-93
2023/03/07 12:56:55;;;;;;;8.75;3.03;;;20.30;57.20;;;;;;4717939;29;91617;-94
2023/03/07 12:59:21;;;;;;;7.03;2.63;;;20.40;57.20;;;;;;4715512;29;96137;-92
2023/03/07 13:02:21;;;;;;;7.55;2.88;;;20.40;57.20;;;;;;4730371;29;87747;-93
2023/03/07 13:04:47;;;;;;;7.85;3.03;;;20.30;56.90;;;;;;4717459;29;89533;-93
2023/03/07 13:07:23;;;;;;;6.05;2.70;;;20.40;56.90;;;;;;4716645;29;90347;-93
2023/03/07 13:09:51;;;;;;;8.32;2.90;;;20.40;57.00;;;;;;4716247;29;90312;-93
2023/03/07 13:12:22;;;;;;;4.23;2.73;;;20.30;57.20;;;;;;4732317;29;87514;-93
2023/03/07 13:15:06;;;;;;;4.47;2.78;;;20.20;57.10;;;;;;4717374;29;89651;-93
2023/03/07 13:17:32;;;;;;;5.80;2.65;;;20.20;57.30;;;;;;4718010;29;91521;-93
2023/03/07 13:20:26;;;;;;;6.20;2.50;;;20.30;57.30;;;;;;4717108;29;90947;-92
2023/03/07 13:26:22;;;;;;;4.47;2.33;;;20.30;57.20;;;;;;4731557;29;90577;-94
2023/03/07 13:28:50;;;;;;;8.27;3.10;;;20.30;57.40;;;;;;4769341;29;90361;-95
2023/03/07 13:31:15;;;;;;;5.50;2.55;;;20.30;56.90;;;;;;4768568;29;89369;-94
2023/03/07 13:33:42;;;;;;;5.57;2.35;;;20.20;56.20;;;;;;4748213;29;87452;-94
2023/03/07 13:36:37;;;;;;;5.30;2.88;;;20.20;56.60;;;;;;4749846;29;93457;-94
2023/03/07 13:41:49;;;;;;;3.85;2.50;;;20.30;56.30;;;;;;4762460;29;90432;-93
2023/03/07 13:44:40;;;;;;;6.22;2.53;;;20.30;56.20;;;;;;4749652;29;87425;-89
2023/03/07 13:47:42;;;;;;;6.97;2.70;;;20.30;56.00;;;;;;4754970;29;89582;-91
2023/03/07 13:50:33;;;;;;;4.53;2.50;;;20.40;56.20;;;;;;4763738;29;95349;-94
2023/03/07 13:53:21;;;;;;;6.90;2.40;;;20.50;56.00;;;;;;4733687;29;92191;-89
2023/03/07 13:56:15;;;;;;;5.43;2.63;;;20.60;56.10;;;;;;4733943;29;87139;-92
2023/03/07 13:59:04;;;;;;;6.10;2.28;;;20.60;55.80;;;;;;4721767;29;89599;-92
2023/03/07 14:01:52;;;;;;;4.28;2.22;;;20.70;56.20;;;;;;4714876;29;91710;-94
2023/03/07 14:04:29;;;;;;;5.93;2.70;;;20.80;55.50;;;;;;4708515;29;90237;-93
2023/03/07 14:07:19;;;;;;;3.70;2.35;;;20.80;55.30;;;;;;4707243;29;86937;-93
2023/03/07 14:09:55;;;;;;;6.30;2.58;;;20.80;55.40;;;;;;4714920;29;89411;-91
2023/03/07 14:12:59;;;;;;;4.95;2.38;;;20.90;55.30;;;;;;4703062;29;90484;-92
2023/03/07 14:19:21;;;;;;;5.03;2.50;;;20.80;55.60;;;;;;4704209;29;88614;-93
2023/03/07 14:21:55;;;;;;;5.95;2.13;;;20.70;55.30;;;;;;4717053;29;89522;-92
2023/03/07 14:24:41;;;;;;;6.80;3.38;;;20.70;55.20;;;;;;4739751;29;89732;-90
2023/03/07 14:27:15;;;;;;;6.80;2.63;;;20.60;55.60;;;;;;4731995;29;91337;-90
2023/03/07 14:29:51;;;;;;;5.55;2.83;;;20.50;55.30;;;;;;4754834;29;86993;-90
2023/03/07 14:32:50;;;;;;;5.93;2.75;;;20.50;55.20;;;;;;4768457;29;94911;-91
2023/03/07 14:35:56;;;;;;;5.63;2.80;;;20.60;55.70;;;;;;4692054;29;95943;-90
2023/03/07 14:38:24;;;;;;;9.15;3.10;;;20.70;55.60;;;;;;4709978;29;95549;-89
2023/03/07 14:40:56;;;;;;;7.80;3.15;;;20.70;55.70;;;;;;4692985;30;87162;-89
2023/03/07 14:44:02;;;;;;;7.43;2.17;;;20.70;55.80;;;;;;4678512;30;89194;-89
2023/03/07 14:50:11;;;;;;;5.30;2.65;;;20.80;55.90;;;;;;4695830;30;87743;-91
2023/03/07 14:52:38;;;;;;;8.68;2.72;;;20.70;55.90;;;;;;4691816;29;87640;-90
2023/03/07 14:55:05;;;;;;;7.47;3.03;;;20.70;56.10;;;;;;4693869;30;90553;-91
2023/03/07 14:57:39;;;;;;;6.30;2.78;;;20.70;56.10;;;;;;4698635;29;91514;-89
2023/03/07 15:00:14;;;;;;;6.15;3.20;;;20.70;56.00;;;;;;4706370;29;91034;-89
2023/03/07 15:02:50;;;;;;;6.45;2.95;;;20.70;56.10;;;;;;4690591;30;87026;-89
2023/03/07 15:05:47;;;;;;;14.20;5.72;;;20.70;56.00;;;;;;4675595;30;92480;-94
2023/03/07 15:08:24;;;;;;;40.97;16.58;;;20.70;55.30;;;;;;4687617;30;95910;-95
2023/03/07 15:11:25;;;;;;;32.17;13.07;;;20.60;54.10;;;;;;4699781;29;90608;-96